Time;durP1;ratioP1;P1;durP2;ratioP2;P2;SDS_P1;SDS_P2;PMS_P1;PMS_P2;Temp;Humidity;BMP_temperature;BMP_pressure;BME280_temperature;BME280_humidity;BME280_pressure;Samples;Min_cycle;Max_cycle;Signal;HPM_P1;HPM_P2
2023/05/14 00:02:01;;;;;;;18.80;11.30;;;;;;;;;;6306058;22;20007;-95
2023/05/14 00:04:36;;;;;;;18.52;11.90;;;;;;;;;;6311269;22;20086;-96
2023/05/14 00:07:15;;;;;;;20.23;11.65;;;;;;;;;;6311627;22;20090;-94
2023/05/14 00:09:53;;;;;;;;;;;;;;;;;;;;;
2023/05/14 00:12:35;;;;;;;18.85;11.32;;;;;;;;;;6340401;22;20069;-96
2023/05/14 00:15:14;;;;;;;20.20;12.25;;;;;;;;;;6310700;22;20003;-96
2023/05/14 00:18:02;;;;;;;21.85;11.85;;;;;;;;;;6310615;22;20003;-95
2023/05/14 00:20:30;;;;;;;19.00;12.23;;;;;;;;;;6291618;22;20094;-96
2023/05/14 00:22:57;;;;;;;17.65;11.30;;;;;;;;;;6310387;22;20042;-96
2023/05/14 00:25:26;;;;;;;28.17;12.57;;;;;;;;;;6311708;22;20014;-96
2023/05/14 00:28:10;;;;;;;22.35;13.48;;;;;;;;;;6304477;22;20013;-95
2023/05/14 00:30:44;;;;;;;20.90;12.85;;;;;;;;;;6310804;22;19998;-95
2023/05/14 00:33:21;;;;;;;21.65;12.90;;;;;;;;;;6311563;22;19999;-96
2023/05/14 00:35:52;;;;;;;24.13;13.45;;;;;;;;;;6310331;22;20056;-95
2023/05/14 00:41:32;;;;;;;24.58;12.48;;;;;;;;;;6258641;22;20052;-96
2023/05/14 00:44:05;;;;;;;22.42;13.43;;;;;;;;;;6333659;22;20771;-96
2023/05/14 00:46:42;;;;;;;19.05;12.55;;;;;;;;;;6310254;22;20110;-96
2023/05/14 00:49:13;;;;;;;20.58;13.20;;;;;;;;;;6309779;22;20465;-95
2023/05/14 00:51:59;;;;;;;;;;;;;;;;;;;;;
2023/05/14 00:54:39;;;;;;;22.25;13.90;;;;;;;;;;6338061;22;20489;-95
2023/05/14 00:57:11;;;;;;;21.45;12.82;;;;;;;;;;6310016;22;20097;-94
2023/05/14 00:59:41;;;;;;;22.05;13.23;;;;;;;;;;6310219;22;20110;-95
2023/05/14 01:02:12;;;;;;;24.40;13.18;;;;;;;;;;6308775;22;20010;-95
2023/05/14 01:04:40;;;;;;;27.33;15.52;;;;;;;;;;6310902;22;20033;-95
2023/05/14 01:07:12;;;;;;;28.77;15.35;;;;;;;;;;6306595;22;20003;-96
2023/05/14 01:09:38;;;;;;;;;;;;;;;;;;6309693;22;19997;-95
2023/05/14 01:12:24;;;;;;;21.77;13.23;;;;;;;;;;6308933;22;19898;-94
2023/05/14 01:14:55;;;;;;;25.52;14.55;;;;;;;;;;6309229;22;20074;-96
2023/05/14 01:17:29;;;;;;;29.25;15.40;;;;;;;;;;6308283;22;19999;-95
2023/05/14 01:19:57;;;;;;;28.63;15.60;;;;;;;;;;6307314;22;20077;-96
2023/05/14 01:22:25;;;;;;;26.65;14.68;;;;;;;;;;6309359;22;20010;-94
2023/05/14 01:24:54;;;;;;;27.05;15.38;;;;;;;;;;6308739;22;20071;-96
2023/05/14 01:27:20;;;;;;;28.52;15.40;;;;;;;;;;6310939;22;20002;-95
2023/05/14 01:29:59;;;;;;;27.02;15.65;;;;;;;;;;6310297;22;20005;-95
2023/05/14 01:32:39;;;;;;;29.90;16.73;;;;;;;;;;6309332;22;20013;-93
2023/05/14 01:35:06;;;;;;;28.40;15.02;;;;;;;;;;6309030;22;20002;-96
2023/05/14 01:37:51;;;;;;;28.15;15.15;;;;;;;;;;6309323;22;20052;-95
2023/05/14 01:40:17;;;;;;;31.80;16.10;;;;;;;;;;6308837;22;19994;-95
2023/05/14 01:42:46;;;;;;;28.88;17.25;;;;;;;;;;6311120;22;20018;-96
2023/05/14 01:45:16;;;;;;;30.20;16.80;;;;;;;;;;6309062;22;20028;-96
2023/05/14 01:47:47;;;;;;;35.47;17.50;;;;;;;;;;6311177;22;20013;-96
2023/05/14 01:50:14;;;;;;;28.38;17.38;;;;;;;;;;6308537;22;20428;-95
2023/05/14 01:52:50;;;;;;;;;;;;;;;;;;;;;
2023/05/14 01:55:23;;;;;;;30.50;17.20;;;;;;;;;;6337761;22;20504;-95
2023/05/14 01:57:57;;;;;;;31.98;17.17;;;;;;;;;;6310856;22;20031;-95
2023/05/14 02:00:49;;;;;;;30.67;18.25;;;;;;;;;;6307099;22;20022;-95
2023/05/14 02:03:29;;;;;;;33.17;17.60;;;;;;;;;;6336761;22;20398;-95
2023/05/14 02:06:07;;;;;;;31.90;17.77;;;;;;;;;;6310757;22;20040;-95
2023/05/14 02:08:44;;;;;;;32.65;18.17;;;;;;;;;;6308896;22;20019;-95
2023/05/14 02:11:13;;;;;;;32.90;18.77;;;;;;;;;;6309947;22;20049;-96
2023/05/14 02:13:38;;;;;;;35.88;19.15;;;;;;;;;;6311270;22;20013;-95
2023/05/14 02:16:04;;;;;;;30.02;17.45;;;;;;;;;;6309434;22;20693;-95
2023/05/14 02:18:31;;;;;;;36.13;19.02;;;;;;;;;;6307958;22;20003;-96
2023/05/14 02:20:59;;;;;;;33.25;18.50;;;;;;;;;;6310053;22;19998;-95
2023/05/14 02:23:36;;;;;;;33.28;19.25;;;;;;;;;;6310867;22;20046;-95
2023/05/14 02:26:09;;;;;;;37.58;18.58;;;;;;;;;;6311079;22;20086;-95
2023/05/14 02:28:40;;;;;;;33.20;17.90;;;;;;;;;;6310231;22;20081;-94
2023/05/14 02:31:06;;;;;;;36.35;20.50;;;;;;;;;;6310802;22;19995;-95
2023/05/14 02:33:34;;;;;;;34.05;17.67;;;;;;;;;;6310433;22;20443;-96
2023/05/14 02:36:04;;;;;;;35.58;19.23;;;;;;;;;;6311137;22;20365;-95
2023/05/14 02:38:35;;;;;;;37.38;19.80;;;;;;;;;;6310190;22;20084;-95
2023/05/14 02:41:04;;;;;;;35.00;18.98;;;;;;;;;;6310367;22;20002;-95
2023/05/14 02:43:38;;;;;;;34.22;18.55;;;;;;;;;;6311180;22;20018;-96
2023/05/14 02:46:06;;;;;;;34.78;18.42;;;;;;;;;;6311744;22;20014;-95
2023/05/14 02:48:56;;;;;;;30.80;17.52;;;;;;;;;;6311962;22;20068;-95
2023/05/14 02:51:39;;;;;;;32.75;17.63;;;;;;;;;;6309824;22;20042;-94
2023/05/14 02:54:24;;;;;;;38.28;19.60;;;;;;;;;;6312030;22;20441;-94
2023/05/14 02:56:55;;;;;;;34.35;19.40;;;;;;;;;;6308643;22;20007;-95
2023/05/14 02:59:23;;;;;;;35.40;18.15;;;;;;;;;;6310497;22;20015;-95
2023/05/14 03:01:49;;;;;;;30.05;18.10;;;;;;;;;;6310058;22;20065;-95
2023/05/14 03:04:17;;;;;;;33.28;19.10;;;;;;;;;;6312030;22;19999;-95
2023/05/14 03:06:48;;;;;;;33.70;17.83;;;;;;;;;;6311842;22;19999;-95
2023/05/14 03:09:16;;;;;;;33.35;18.13;;;;;;;;;;6311041;22;20034;-94
2023/05/14 03:11:49;;;;;;;33.08;18.15;;;;;;;;;;6309082;22;20032;-95
2023/05/14 03:17:48;;;;;;;;;;;;;;;;;;;;;
2023/05/14 03:20:13;;;;;;;33.85;18.23;;;;;;;;;;6335572;22;20056;-95
2023/05/14 03:22:58;;;;;;;34.28;18.92;;;;;;;;;;6311572;22;20038;-95
2023/05/14 03:28:38;;;;;;;31.55;18.13;;;;;;;;;;6279587;22;19999;-95
2023/05/14 03:31:12;;;;;;;30.98;18.08;;;;;;;;;;6314311;22;20316;-95
2023/05/14 03:33:48;;;;;;;34.13;18.05;;;;;;;;;;6312744;22;19991;-95
2023/05/14 03:36:41;;;;;;;32.28;17.85;;;;;;;;;;6313443;22;20083;-95
2023/05/14 03:39:23;;;;;;;33.53;17.95;;;;;;;;;;6312490;22;20078;-96
2023/05/14 03:41:56;;;;;;;34.88;19.15;;;;;;;;;;6312690;22;20018;-96
2023/05/14 03:44:31;;;;;;;31.67;18.00;;;;;;;;;;6313166;22;19995;-96
2023/05/14 03:47:15;;;;;;;33.97;17.85;;;;;;;;;;6313322;22;20074;-95
2023/05/14 03:50:04;;;;;;;34.25;18.50;;;;;;;;;;6310947;22;20009;-95
2023/05/14 03:52:42;;;;;;;;;;;;;;;;;;;;;
2023/05/14 03:55:08;;;;;;;35.80;19.88;;;;;;;;;;6338682;22;20051;-96
2023/05/14 03:57:54;;;;;;;39.80;20.10;;;;;;;;;;6312309;22;19999;-96
2023/05/14 04:00:22;;;;;;;38.05;19.20;;;;;;;;;;6313218;22;20010;-95
2023/05/14 04:03:26;;;;;;;35.00;19.70;;;;;;;;;;6310716;22;20010;-94
2023/05/14 04:05:58;;;;;;;35.58;19.38;;;;;;;;;;6339438;22;20003;-95
2023/05/14 04:08:51;;;;;;;;;;;;;;;;;;;;;
2023/05/14 04:11:40;;;;;;;;;;;;;;;;;;;;;
2023/05/14 04:20:03;;;;;;;39.83;19.20;;;;;;;;;;6323494;22;20007;-94
2023/05/14 04:22:38;;;;;;;;;;;;;;;;;;;;;
2023/05/14 04:25:30;;;;;;;39.47;20.08;;;;;;;;;;6340930;22;20085;-94
2023/05/14 04:27:59;;;;;;;40.08;20.17;;;;;;;;;;6311216;22;20417;-95
2023/05/14 04:30:29;;;;;;;41.40;20.73;;;;;;;;;;6313057;22;20003;-95
2023/05/14 04:32:57;;;;;;;44.85;20.45;;;;;;;;;;6309007;22;20050;-96
2023/05/14 04:36:04;;;;;;;38.00;21.33;;;;;;;;;;6311584;22;20009;-96
2023/05/14 04:41:55;;;;;;;41.53;22.48;;;;;;;;;;6323789;22;20089;-96
2023/05/14 04:52:59;;;;;;;;;;;;;;;;;;;;;
2023/05/14 04:55:58;;;;;;;;;;;;;;;;;;;;;
2023/05/14 04:58:38;;;;;;;;;;;;;;;;;;;;;
2023/05/14 05:04:22;;;;;;;49.42;24.80;;;;;;;;;;6313982;22;20433;-96
2023/05/14 05:07:18;;;;;;;44.67;22.60;;;;;;;;;;6339219;22;19995;-95
2023/05/14 05:09:35;;;;;;;44.35;22.27;;;;;;;;;;6331215;22;20003;-96
2023/05/14 05:21:24;;;;;;;;;;;;;;;;;;;;;
2023/05/14 05:24:01;;;;;;;45.17;22.58;;;;;;;;;;6337949;22;20114;-94
2023/05/14 05:26:57;;;;;;;;;;;;;;;;;;;;;
2023/05/14 05:32:40;;;;;;;46.13;22.67;;;;;;;;;;6291325;22;20010;-95
2023/05/14 05:35:43;;;;;;;42.85;21.25;;;;;;;;;;6296460;22;20228;-95
2023/05/14 05:38:14;;;;;;;43.35;22.27;;;;;;;;;;6310570;22;20086;-96
2023/05/14 05:50:10;;;;;;;39.22;18.95;;;;;;;;;;6316120;22;19999;-95
2023/05/14 05:52:58;;;;;;;;;;;;;;;;;;;;;
2023/05/14 05:59:12;;;;;;;;;;;;;;;;;;;;;
2023/05/14 06:01:59;;;;;;;;;;;;;;;;;;;;;
2023/05/14 06:05:23;;;;;;;;;;;;;;;;;;;;;
2023/05/14 06:10:53;;;;;;;;;;;;;;;;;;;;;
2023/05/14 06:13:52;;;;;;;44.17;21.83;;;;;;;;;;6212011;23;20064;-95
2023/05/14 06:17:06;;;;;;;;;;;;;;;;;;;;;
2023/05/14 06:20:13;;;;;;;40.53;20.25;;;;;;;;;;6338105;22;20081;-96
2023/05/14 06:23:10;;;;;;;;;;;;;;;;;;;;;
2023/05/14 06:26:08;;;;;;;33.67;17.95;;;;;;;;;;6336649;22;20054;-95
2023/05/14 06:28:49;;;;;;;40.72;20.40;;;;;;;;;;6256382;22;20006;-96
2023/05/14 06:38:03;;;;;;;;;;;;;;;;;;;;;
2023/05/14 06:43:57;;;;;;;36.80;19.10;;;;;;;;;;6316114;22;20080;-96
2023/05/14 06:59:01;;;;;;;39.22;20.38;;;;;;;;;;6273463;22;19994;-96
2023/05/14 07:04:40;;;;;;;35.95;19.48;;;;;;;;;;6321973;22;20011;-95
2023/05/14 07:07:36;;;;;;;;;;;;;;;;;;;;;
2023/05/14 07:10:26;;;;;;;;;;;;;;;;;;;;;
2023/05/14 07:19:26;;;;;;;36.85;18.42;;;;;;;;;;6331509;22;20002;-95
2023/05/14 07:22:30;;;;;;;36.40;17.42;;;;;;;;;;6309204;22;20011;-96
2023/05/14 07:31:46;;;;;;;35.63;17.65;;;;;;;;;;6214160;23;20266;-95
2023/05/14 07:34:15;;;;;;;;;;;;;;;;;;;;;
2023/05/14 07:36:46;;;;;;;;;;;;;;;;;;;;;
2023/05/14 07:39:40;;;;;;;34.95;17.63;;;;;;;;;;6214626;23;20085;-94
2023/05/14 07:51:33;;;;;;;;;;;;;;;;;;;;;
2023/05/14 07:56:59;;;;;;;40.50;19.23;;;;;;;;;;6137265;23;20056;-94
2023/05/14 07:59:50;;;;;;;40.58;18.90;;;;;;;;;;6153564;23;20002;-96
2023/05/14 08:05:54;;;;;;;;;;;;;;;;;;;;;
2023/05/14 08:08:40;;;;;;;35.65;15.80;;;;;;;;;;6248579;22;20080;-96
2023/05/14 08:11:42;;;;;;;;;;;;;;;;;;;;;
2023/05/14 08:14:49;;;;;;;;;;;;;;;;;;;;;
2023/05/14 08:20:59;;;;;;;;;;;;;;;;;;;;;
2023/05/14 08:23:47;;;;;;;37.22;17.23;;;;;;;;;;6205413;23;20040;-95
2023/05/14 08:26:37;;;;;;;34.53;18.80;;;;;;;;;;6215101;23;20412;-95
2023/05/14 08:29:21;;;;;;;;;;;;;;;;;;;;;
2023/05/14 08:32:04;;;;;;;;;;;;;;;;;;;;;
2023/05/14 08:34:56;;;;;;;42.08;22.05;;;;;;;;;;6211840;23;20088;-96
2023/05/14 08:37:45;;;;;;;30.38;16.55;;;;;;;;;;6153162;23;20017;-96
2023/05/14 08:40:32;;;;;;;;;;;;;;;;;;;;;
2023/05/14 08:43:21;;;;;;;39.17;18.75;;;;;;;;;;6214663;23;20087;-95
2023/05/14 08:55:17;;;;;;;;;;;;;;;;;;;;;
2023/05/14 08:58:16;;;;;;;37.85;17.65;;;;;;;;;;6335324;22;20074;-95
2023/05/14 09:00:55;;;;;;;41.40;20.35;;;;;;;;;;6311718;22;20003;-96
2023/05/14 09:07:07;;;;;;;33.15;16.75;;;;;;;;;;6276398;22;20282;-95
2023/05/14 09:09:44;;;;;;;;;;;;;;;;;;;;;
2023/05/14 09:12:46;;;;;;;31.45;17.48;;;;;;;;;;6330165;22;20414;-96
2023/05/14 09:24:48;;;;;;;37.80;18.80;;;;;;;;;;6310773;22;20018;-95
2023/05/14 09:27:42;;;;;;;30.70;16.55;;;;;;;;;;6191119;22;20001;-95
2023/05/14 09:30:38;;;;;;;;;;;;;;;;;;;;;
2023/05/14 09:33:35;;;;;;;39.15;18.45;;;;;;;;;;6325214;22;20082;-94
2023/05/14 09:36:31;;;;;;;;;;;;;;;;;;;;;
2023/05/14 09:42:15;;;;;;;;;;;;;;;;;;;;;
2023/05/14 09:45:04;;;;;;;;;;;;;;;;;;;;;
2023/05/14 09:50:54;;;;;;;;;;;;;;;;;;;;;
2023/05/14 09:53:42;;;;;;;;;;;;;;;;;;;;;
2023/05/14 09:56:45;;;;;;;;;;;;;;;;;;;;;
2023/05/14 10:05:59;;;;;;;;;;;;;;;;;;;;;
2023/05/14 10:15:27;;;;;;;;;;;;;;;;;;;;;
2023/05/14 10:18:14;;;;;;;34.58;18.02;;;;;;;;;;6208783;23;20072;-96
2023/05/14 10:20:59;;;;;;;;;;;;;;;;;;;;;
2023/05/14 10:23:46;;;;;;;;;;;;;;;;;;;;;
2023/05/14 10:26:49;;;;;;;41.50;19.85;;;;;;;;;;6339984;22;20089;-96
2023/05/14 10:29:48;;;;;;;;;;;;;;;;;;;;;
2023/05/14 10:32:48;;;;;;;;;;;;;;;;;;;;;
2023/05/14 11:05:37;;;;;;;;;;;;;;;;;;;;;
2023/05/14 11:08:49;;;;;;;;;;;;;;;;;;;;;
2023/05/14 11:28:01;;;;;;;;;;;;;;;;;;;;;
2023/05/14 13:38:27;;;;;;;;;;;;;;;;;;;;;
2023/05/14 14:28:36;;;;;;;;;;;;;;;;;;;;;
2023/05/14 14:34:41;;;;;;;;;;;;;;;;;;;;;
2023/05/14 14:44:01;;;;;;;;;;;;;;;;;;;;;
2023/05/14 14:47:22;;;;;;;;;;;;;;;;;;;;;
2023/05/14 15:15:51;;;;;;;;;;;;;;;;;;;;;
2023/05/14 15:31:53;;;;;;;8.38;4.80;;;;;;;;;;6015759;23;20027;-96
2023/05/14 15:50:42;;;;;;;;;;;;;;;;;;;;;
2023/05/14 15:59:51;;;;;;;;;;;;;;;;;;;;;
2023/05/14 16:08:45;;;;;;;20.02;9.82;;;;;;;;;;6225331;23;20012;-96
2023/05/14 16:14:48;;;;;;;;;;;;;;;;;;;;;
2023/05/14 16:24:15;;;;;;;;;;;;;;;;;;;;;
2023/05/14 16:44:52;;;;;;;26.27;11.25;;;;;;;;;;6128624;23;20045;-95
2023/05/14 16:54:13;;;;;;;;;;;;;;;;;;;;;
2023/05/14 16:57:25;;;;;;;;;;;;;;;;;;;;;
2023/05/14 17:00:48;;;;;;;;;;;;;;;;;;;;;
2023/05/14 17:15:42;;;;;;;;;;;;;;;;;;;;;
2023/05/14 17:44:13;;;;;;;25.00;10.65;;;;;;;;;;6347773;22;20051;-95
2023/05/14 17:52:44;;;;;;;;;;;;;;;;;;;;;
2023/05/14 17:55:48;;;;;;;;;;;;;;;;;;;;;
2023/05/14 18:05:20;;;;;;;;;;;;;;;;;;;;;
2023/05/14 18:14:16;;;;;;;;;;;;;;;;;;;;;
2023/05/14 18:17:18;;;;;;;;;;;;;;;;;;;;;
2023/05/14 18:23:25;;;;;;;21.17;10.40;;;;;;;;;;6333662;22;20030;-96
2023/05/14 18:26:42;;;;;;;;;;;;;;;;;;;;;
2023/05/14 18:29:15;;;;;;;;;;;;;;;;;;;;;
2023/05/14 18:32:16;;;;;;;;;;;;;;;;;;;;;
2023/05/14 18:38:09;;;;;;;;;;;;;;;;;;;;;
2023/05/14 18:47:38;;;;;;;;;;;;;;;;;;;;;
2023/05/14 18:57:06;;;;;;;;;;;;;;;;;;;;;
2023/05/14 19:00:05;;;;;;;;;;;;;;;;;;;;;
2023/05/14 19:02:46;;;;;;;;;;;;;;;;;;;;;
2023/05/14 19:05:37;;;;;;;15.18;8.27;;;;;;;;;;6345036;22;20014;-96
2023/05/14 19:08:34;;;;;;;14.90;8.23;;;;;;;;;;6305401;22;20033;-96
2023/05/14 19:17:56;;;;;;;14.05;8.70;;;;;;;;;;6217863;23;20059;-96
2023/05/14 19:20:45;;;;;;;20.63;9.10;;;;;;;;;;6192418;23;20005;-95
2023/05/14 19:30:06;;;;;;;;;;;;;;;;;;;;;
2023/05/14 19:33:08;;;;;;;13.07;8.30;;;;;;;;;;6216638;23;20419;-96
2023/05/14 19:35:53;;;;;;;;;;;;;;;;;;;;;
2023/05/14 19:44:37;;;;;;;;;;;;;;;;;;;;;
2023/05/14 19:47:14;;;;;;;17.73;8.00;;;;;;;;;;6342898;22;20038;-96
2023/05/14 19:55:44;;;;;;;18.05;8.95;;;;;;;;;;6212671;23;20032;-96
2023/05/14 19:58:40;;;;;;;;;;;;;;;;;;;;;
2023/05/14 20:01:33;;;;;;;15.52;7.80;;;;;;;;;;6161436;23;20075;-95
2023/05/14 20:10:43;;;;;;;;;;;;;;;;;;;;;
2023/05/14 20:16:32;;;;;;;17.65;9.45;;;;;;;;;;6212888;23;20158;-95
2023/05/14 20:22:06;;;;;;;19.33;9.80;;;;;;;;;;6343074;22;19999;-96
2023/05/14 20:31:12;;;;;;;20.83;10.48;;;;;;;;;;6329646;22;20003;-96
2023/05/14 20:33:42;;;;;;;15.40;9.60;;;;;;;;;;6302654;22;20022;-96
2023/05/14 20:36:10;;;;;;;18.40;10.07;;;;;;;;;;6305368;22;20007;-96
2023/05/14 20:38:47;;;;;;;18.77;10.32;;;;;;;;;;6313996;22;20006;-95
2023/05/14 20:41:33;;;;;;;21.85;10.25;;;;;;;;;;6314885;22;20059;-96
2023/05/14 20:44:22;;;;;;;17.20;10.20;;;;;;;;;;6313021;22;20014;-95
2023/05/14 20:47:20;;;;;;;;;;;;;;;;;;;;;
2023/05/14 20:49:54;;;;;;;17.92;9.05;;;;;;;;;;6342350;22;20030;-96
2023/05/14 20:52:40;;;;;;;16.20;8.80;;;;;;;;;;6316998;22;19991;-96
2023/05/14 20:55:18;;;;;;;21.17;11.38;;;;;;;;;;6318035;22;19999;-95
2023/05/14 20:58:25;;;;;;;17.42;10.23;;;;;;;;;;6313179;22;20018;-96
2023/05/14 21:01:17;;;;;;;19.52;10.35;;;;;;;;;;6343521;22;20020;-96
2023/05/14 21:03:57;;;;;;;17.77;9.30;;;;;;;;;;6312311;22;20007;-95
2023/05/14 21:06:34;;;;;;;20.63;10.85;;;;;;;;;;6310313;22;20085;-96
2023/05/14 21:09:51;;;;;;;;;;;;;;;;;;;;;
2023/05/14 21:18:49;;;;;;;;;;;;;;;;;;;;;
2023/05/14 21:21:33;;;;;;;;;;;;;;;;;;;;;
2023/05/14 21:27:23;;;;;;;20.35;9.85;;;;;;;;;;6292916;22;19995;-96
2023/05/14 21:30:14;;;;;;;19.98;10.30;;;;;;;;;;6314603;22;20011;-96
2023/05/14 21:36:21;;;;;;;;;;;;;;;;;;;;;
2023/05/14 21:42:49;;;;;;;18.05;10.95;;;;;;;;;;6277517;22;20017;-95
2023/05/14 21:45:35;;;;;;;19.80;11.23;;;;;;;;;;6341209;22;20006;-96
2023/05/14 21:48:40;;;;;;;26.95;11.73;;;;;;;;;;6313550;22;20018;-96
2023/05/14 21:51:36;;;;;;;;;;;;;;;;;;;;;
2023/05/14 22:06:23;;;;;;;16.27;9.15;;;;;;;;;;6286428;22;20006;-96
2023/05/14 22:09:36;;;;;;;;;;;;;;;;;;;;;
2023/05/14 22:18:19;;;;;;;;;;;;;;;;;;;;;
2023/05/14 22:29:25;;;;;;;20.88;10.57;;;;;;;;;;6313818;22;20025;-96
2023/05/14 22:44:35;;;;;;;23.90;11.98;;;;;;;;;;6173546;23;20091;-96
2023/05/14 22:47:23;;;;;;;26.98;11.40;;;;;;;;;;6214018;23;20055;-96
2023/05/14 22:50:09;;;;;;;;;;;;;;;;;;;;;
2023/05/14 22:52:49;;;;;;;20.90;11.23;;;;;;;;;;6216532;23;20055;-96
2023/05/14 22:58:39;;;;;;;26.42;14.10;;;;;;;;;;6199549;23;20039;-96
2023/05/14 23:01:13;;;;;;;23.35;11.10;;;;;;;;;;6228049;22;20331;-96
2023/05/14 23:04:00;;;;;;;;;;;;;;;;;;;;;
2023/05/14 23:06:56;;;;;;;;;;;;;;;;;;;;;
2023/05/14 23:09:57;;;;;;;;;;;;;;;;;;;;;
2023/05/14 23:12:37;;;;;;;31.35;14.82;;;;;;;;;;6340141;22;20089;-96
2023/05/14 23:21:24;;;;;;;28.73;13.85;;;;;;;;;;6316797;22;19994;-95
2023/05/14 23:23:54;;;;;;;27.88;14.57;;;;;;;;;;6313359;22;20015;-96
2023/05/14 23:26:24;;;;;;;31.38;15.95;;;;;;;;;;6316958;22;20002;-96
2023/05/14 23:29:17;;;;;;;33.42;16.20;;;;;;;;;;6310542;22;20003;-96
2023/05/14 23:32:09;;;;;;;;;;;;;;;;;;;;;
2023/05/14 23:35:00;;;;;;;29.40;14.30;;;;;;;;;;6342467;22;20079;-95
2023/05/14 23:37:40;;;;;;;29.10;16.13;;;;;;;;;;6310786;22;20228;-95
2023/05/14 23:43:26;;;;;;;30.00;15.65;;;;;;;;;;6337145;22;20010;-96
2023/05/14 23:46:09;;;;;;;29.85;14.57;;;;;;;;;;6313963;22;20007;-96
2023/05/14 23:48:57;;;;;;;;;;;;;;;;;;;;;
2023/05/14 23:51:38;;;;;;;;;;;;;;;;;;;;;
2023/05/14 23:57:18;;;;;;;33.72;15.50;;;;;;;;;;6324943;22;20003;-96
